Rio Grande, Brazil
Current Conditions -  °F | °C
As of 5:00 AM on Thursday 18 Dec 2014 (Local Time) from SBPK Reporting Station
Few Clouds Few Clouds  
Wind Chill: 64°   Ceiling: Unl
Heat Index: 64°   Visibility: 6mi
Dew Point: 64°   Wind: 2mph
Humidity: 100%   Direction: 260°W
Pressure: 29.83"   Gusts: NA
Location:  32.05°S, 52.11°W
Report Text: SBPK 180700Z 26002KT 9999 FEW010 18/18 Q1010
Loading
Personal Weather Stations






























Interactive Weather Map New forecast layout! Learn more

10-Day Weather Forecast

Advertisements
Track Severe Weather on mobile